createdAt,value
2018-09-05T00:01:50.964Z,14.30
2018-09-05T00:04:19.406Z,14.67
2018-09-05T00:06:47.139Z,15.60
2018-09-05T00:09:14.874Z,14.60
2018-09-05T00:11:42.602Z,14.07
2018-09-05T00:14:10.364Z,14.77
2018-09-05T00:16:38.099Z,13.67
2018-09-05T00:19:05.822Z,13.63
2018-09-05T00:21:33.524Z,14.30
2018-09-05T00:24:01.182Z,15.27
2018-09-05T00:26:28.877Z,15.67
2018-09-05T00:28:56.605Z,15.10
2018-09-05T00:31:24.572Z,14.20
2018-09-05T00:33:52.290Z,13.80
2018-09-05T00:36:20.000Z,14.77
2018-09-05T00:38:47.767Z,14.60
2018-09-05T00:41:15.555Z,14.50
2018-09-05T00:43:43.415Z,14.73
2018-09-05T00:46:11.159Z,15.80
2018-09-05T00:48:38.814Z,16.30
2018-09-05T00:51:06.556Z,14.83
2018-09-05T00:53:34.219Z,14.43
2018-09-05T00:56:02.828Z,13.80
2018-09-05T00:58:30.759Z,13.80
2018-09-05T01:00:58.972Z,14.20
2018-09-05T01:03:27.354Z,14.33
2018-09-05T01:05:55.100Z,15.47
2018-09-05T01:08:22.649Z,13.03
2018-09-05T01:10:50.450Z,14.30
2018-09-05T01:13:18.140Z,14.10
2018-09-05T01:15:45.955Z,14.30
2018-09-05T01:18:13.601Z,14.43
2018-09-05T01:20:41.380Z,14.40
2018-09-05T01:23:09.818Z,15.40
2018-09-05T01:25:38.179Z,15.83
2018-09-05T01:28:05.967Z,14.77
2018-09-05T01:30:34.020Z,14.57
2018-09-05T01:33:03.653Z,14.83
2018-09-05T01:35:31.602Z,14.83
2018-09-05T01:37:59.280Z,15.43
2018-09-05T01:40:26.951Z,15.77
2018-09-05T01:42:54.805Z,15.77
2018-09-05T01:45:22.444Z,16.30
2018-09-05T01:47:50.065Z,14.13
2018-09-05T01:50:22.137Z,14.60
2018-09-05T01:52:50.538Z,17.67
2018-09-05T01:55:18.470Z,17.53
2018-09-05T01:57:46.223Z,15.03
2018-09-05T02:00:35.066Z,17.40
2018-09-05T02:03:04.222Z,18.37
2018-09-05T02:05:31.990Z,18.07
2018-09-05T02:08:01.002Z,18.60
2018-09-05T02:10:29.332Z,18.80
2018-09-05T02:12:58.065Z,18.40
2018-09-05T02:15:25.888Z,18.10
2018-09-05T02:17:53.610Z,20.10
2018-09-05T02:20:21.712Z,17.50
2018-09-05T02:22:50.374Z,17.80
2018-09-05T02:25:18.345Z,18.80
2018-09-05T02:27:46.195Z,18.70
2018-09-05T02:30:14.055Z,18.60
2018-09-05T02:32:41.877Z,18.90
2018-09-05T02:35:09.774Z,19.50
2018-09-05T02:37:37.494Z,18.47
2018-09-05T02:40:06.118Z,19.23
2018-09-05T02:42:33.859Z,20.33
2018-09-05T02:45:01.719Z,19.57
2018-09-05T02:47:29.298Z,18.47
2018-09-05T02:49:56.975Z,17.17
2018-09-05T02:52:24.697Z,19.67
2018-09-05T02:54:52.479Z,18.80
2018-09-05T02:57:20.127Z,18.30
2018-09-05T02:59:47.975Z,18.37
2018-09-05T03:02:15.855Z,18.87
2018-09-05T03:04:43.663Z,19.83
2018-09-05T03:07:11.506Z,18.40
2018-09-05T03:09:39.483Z,19.00
2018-09-05T03:12:07.255Z,18.27
2018-09-05T03:14:35.035Z,19.30
2018-09-05T03:17:03.073Z,17.37
2018-09-05T03:19:30.862Z,17.80
2018-09-05T03:21:58.556Z,18.00
2018-09-05T03:24:27.423Z,18.27
2018-09-05T03:26:56.083Z,17.13
2018-09-05T03:29:23.742Z,19.57
2018-09-05T03:31:51.503Z,19.30
2018-09-05T03:34:19.131Z,19.50
2018-09-05T03:36:46.988Z,17.90
2018-09-05T03:39:15.007Z,17.73
2018-09-05T03:41:43.381Z,20.07
2018-09-05T03:44:11.273Z,19.50
2018-09-05T03:46:39.452Z,19.20
2018-09-05T03:49:07.209Z,19.90
2018-09-05T03:51:34.919Z,19.67
2018-09-05T03:54:07.622Z,19.90
2018-09-05T03:56:35.212Z,19.80
2018-09-05T03:59:02.933Z,19.10
2018-09-05T04:01:30.714Z,19.20
2018-09-05T04:03:58.482Z,19.73
2018-09-05T04:06:26.283Z,19.83
2018-09-05T04:08:53.979Z,19.27
2018-09-05T04:11:21.744Z,20.00
2018-09-05T04:13:49.719Z,20.20
2018-09-05T04:16:17.359Z,20.40
2018-09-05T04:18:45.077Z,21.13
2018-09-05T04:21:12.696Z,21.17
2018-09-05T04:23:46.543Z,19.60
2018-09-05T04:26:19.136Z,19.50
2018-09-05T04:28:46.799Z,19.77
2018-09-05T04:31:15.416Z,21.00
2018-09-05T04:33:43.237Z,19.93
2018-09-05T04:36:13.224Z,20.50
2018-09-05T04:38:41.814Z,19.43
2018-09-05T04:41:09.584Z,18.87
2018-09-05T04:43:37.212Z,20.20
2018-09-05T04:46:10.698Z,20.20
2018-09-05T04:48:38.364Z,20.27
2018-09-05T04:51:06.074Z,18.00
2018-09-05T04:53:33.731Z,20.10
2018-09-05T04:56:01.517Z,21.20
2018-09-05T04:58:29.211Z,18.93
2018-09-05T05:00:56.994Z,18.60
2018-09-05T05:03:24.672Z,19.60
2018-09-05T05:05:52.371Z,18.70
2018-09-05T05:08:20.036Z,19.07
2018-09-05T05:10:48.490Z,20.23
2018-09-05T05:13:16.215Z,20.33
2018-09-05T05:15:45.035Z,20.43
2018-09-05T05:18:13.814Z,20.33
2018-09-05T05:23:34.422Z,21.97
2018-09-05T05:26:02.234Z,21.00
2018-09-05T05:28:29.972Z,22.60
2018-09-05T05:30:57.770Z,24.13
2018-09-05T05:33:25.717Z,22.80
2018-09-05T05:35:53.373Z,23.13
2018-09-05T05:38:22.082Z,24.13
2018-09-05T05:40:49.790Z,22.17
2018-09-05T05:43:19.784Z,24.00
2018-09-05T05:45:47.518Z,22.30
2018-09-05T05:48:15.244Z,22.47
2018-09-05T05:50:43.976Z,21.67
2018-09-05T05:53:11.713Z,22.93
2018-09-05T05:55:39.362Z,23.33
2018-09-05T05:58:07.007Z,22.17
2018-09-05T06:00:34.800Z,21.70
2018-09-05T06:03:02.495Z,22.70
2018-09-05T06:05:30.299Z,21.80
2018-09-05T06:07:57.986Z,23.20
2018-09-05T06:10:26.781Z,21.33
2018-09-05T06:12:56.298Z,22.83
2018-09-05T06:15:24.423Z,20.57
2018-09-05T06:17:52.093Z,22.07
2018-09-05T06:20:19.957Z,20.87
2018-09-05T06:22:48.161Z,18.93
2018-09-05T06:25:16.038Z,20.77
2018-09-05T06:27:44.007Z,22.87
2018-09-05T06:30:11.761Z,21.60
2018-09-05T06:32:39.496Z,21.37
2018-09-05T06:35:07.115Z,23.00
2018-09-05T06:37:34.889Z,21.07
2018-09-05T06:40:02.664Z,21.07
2018-09-05T06:42:30.319Z,22.53
2018-09-05T06:44:58.112Z,22.40
2018-09-05T06:47:25.809Z,22.83
2018-09-05T06:49:54.062Z,23.23
2018-09-05T06:52:21.791Z,24.00
2018-09-05T06:54:49.505Z,22.83
2018-09-05T06:57:17.163Z,22.37
2018-09-05T06:59:46.937Z,22.30
2018-09-05T07:02:14.659Z,22.13
2018-09-05T07:04:42.413Z,22.80
2018-09-05T07:07:10.160Z,22.10
2018-09-05T07:09:38.315Z,22.50
2018-09-05T07:12:06.242Z,21.47
2018-09-05T07:14:33.952Z,21.00
2018-09-05T07:17:01.692Z,20.67
2018-09-05T07:19:29.465Z,21.60
2018-09-05T07:21:57.335Z,22.87
2018-09-05T07:24:26.179Z,21.03
2018-09-05T07:26:53.888Z,22.17
2018-09-05T07:29:21.647Z,21.20
2018-09-05T07:31:49.275Z,21.20
2018-09-05T07:34:16.911Z,21.53
2018-09-05T07:36:44.790Z,20.83
2018-09-05T07:39:12.608Z,21.13
2018-09-05T07:41:40.745Z,20.63
2018-09-05T07:44:19.133Z,20.90
2018-09-05T07:46:46.873Z,19.83
2018-09-05T07:49:14.539Z,20.43
2018-09-05T07:51:42.420Z,22.00
2018-09-05T07:54:10.303Z,20.43
2018-09-05T07:56:38.052Z,19.53
2018-09-05T07:59:05.848Z,19.07
2018-09-05T08:01:33.595Z,20.00
2018-09-05T08:04:03.042Z,20.47
2018-09-05T08:06:30.832Z,20.43
2018-09-05T08:11:33.207Z,19.60
2018-09-05T08:14:01.154Z,20.07
2018-09-05T08:16:28.890Z,18.80
2018-09-05T08:18:57.038Z,18.17
2018-09-05T08:21:24.784Z,17.20
2018-09-05T08:23:52.818Z,18.27
2018-09-05T08:26:20.561Z,19.57
2018-09-05T08:28:48.313Z,18.60
2018-09-05T08:31:16.080Z,18.37
2018-09-05T08:33:43.854Z,17.73
2018-09-05T08:36:12.508Z,19.00
2018-09-05T08:38:40.479Z,16.37
2018-09-05T08:41:09.319Z,19.30
2018-09-05T08:43:38.257Z,17.77
2018-09-05T08:46:06.289Z,16.13
2018-09-05T08:48:34.589Z,18.30
2018-09-05T08:51:04.865Z,16.47
2018-09-05T08:53:32.604Z,17.47
2018-09-05T08:56:00.425Z,17.03
2018-09-05T08:58:28.105Z,18.20
2018-09-05T09:00:55.836Z,16.03
2018-09-05T09:03:23.618Z,17.50
2018-09-05T09:05:51.227Z,15.57
2018-09-05T09:08:39.370Z,15.10
2018-09-05T09:11:07.047Z,17.37
2018-09-05T09:13:34.769Z,16.33
2018-09-05T09:16:02.419Z,17.33
2018-09-05T09:18:30.170Z,15.50
2018-09-05T09:20:57.879Z,15.20
2018-09-05T09:23:25.548Z,17.77
2018-09-05T09:25:53.288Z,16.00
2018-09-05T09:28:21.362Z,17.50
2018-09-05T09:30:49.125Z,16.90
2018-09-05T09:33:17.539Z,15.93
2018-09-05T09:35:46.573Z,18.70
2018-09-05T09:38:14.332Z,15.70
2018-09-05T09:40:43.279Z,16.30
2018-09-05T09:43:14.783Z,14.90
2018-09-05T09:45:42.561Z,14.70
2018-09-05T09:48:10.689Z,13.80
2018-09-05T09:50:43.365Z,15.97
2018-09-05T09:53:11.155Z,15.03
2018-09-05T09:55:38.844Z,15.43
2018-09-05T09:58:07.237Z,15.13
2018-09-05T10:00:40.849Z,15.67
2018-09-05T10:03:14.310Z,16.10
2018-09-05T10:05:47.578Z,13.40
2018-09-05T10:08:21.651Z,16.03
2018-09-05T10:10:55.020Z,14.43
2018-09-05T10:13:28.444Z,14.90
2018-09-05T10:16:01.775Z,14.80
2018-09-05T10:18:30.450Z,14.73
2018-09-05T10:20:59.126Z,13.47
2018-09-05T10:23:26.907Z,15.97
2018-09-05T10:25:54.830Z,15.73
2018-09-05T10:28:22.474Z,15.57
2018-09-05T10:30:50.527Z,16.40
2018-09-05T10:33:40.452Z,16.40
2018-09-05T10:36:08.831Z,15.07
2018-09-05T10:38:42.724Z,16.07
2018-09-05T10:43:59.677Z,14.77
2018-09-05T10:46:27.528Z,15.90
2018-09-05T10:48:59.924Z,13.70
2018-09-05T10:51:33.332Z,14.70
2018-09-05T10:54:01.827Z,14.63
2018-09-05T10:56:30.853Z,14.43
2018-09-05T10:58:58.619Z,13.80
2018-09-05T11:01:26.434Z,12.60
2018-09-05T11:03:57.448Z,13.60
2018-09-05T11:06:25.634Z,13.60
2018-09-05T11:08:53.549Z,11.80
2018-09-05T11:11:21.373Z,13.80
2018-09-05T11:13:49.497Z,13.10
2018-09-05T11:16:19.657Z,12.10
2018-09-05T11:18:47.396Z,10.70
2018-09-05T11:21:16.194Z,11.17
2018-09-05T11:23:43.939Z,10.90
2018-09-05T11:26:11.692Z,11.63
2018-09-05T11:28:40.107Z,10.27
2018-09-05T11:31:08.055Z,11.40
2018-09-05T11:33:36.823Z,11.80
2018-09-05T11:36:09.744Z,13.80
2018-09-05T11:38:38.231Z,10.10
2018-09-05T11:41:06.012Z,11.00
2018-09-05T11:43:33.852Z,10.43
2018-09-05T11:46:02.716Z,12.10
2018-09-05T11:48:31.586Z,10.77
2018-09-05T11:50:59.746Z,11.20
2018-09-05T11:53:27.584Z,12.30
2018-09-05T11:55:55.224Z,10.83
2018-09-05T11:59:53.008Z,11.70
2018-09-05T12:02:20.945Z,11.03
2018-09-05T12:04:49.708Z,9.90
2018-09-05T12:07:17.724Z,10.30
2018-09-05T12:09:47.584Z,10.17
2018-09-05T12:12:15.485Z,10.10
2018-09-05T12:14:43.211Z,11.17
2018-09-05T12:17:11.081Z,9.50
2018-09-05T12:19:40.658Z,11.20
2018-09-05T12:22:09.130Z,9.70
2018-09-05T12:24:36.699Z,10.10
2018-09-05T12:27:04.381Z,9.70
2018-09-05T12:29:32.321Z,10.80
2018-09-05T12:32:00.250Z,10.40
2018-09-05T12:34:27.983Z,9.50
2018-09-05T12:36:55.796Z,10.03
2018-09-05T12:39:24.079Z,9.80
2018-09-05T12:41:52.513Z,9.60
2018-09-05T12:44:21.751Z,9.27
2018-09-05T12:46:49.477Z,9.90
2018-09-05T12:49:18.282Z,9.90
2018-09-05T12:51:45.887Z,9.20
2018-09-05T12:54:13.855Z,9.70
2018-09-05T12:56:41.936Z,9.20
2018-09-05T12:59:10.253Z,10.20
2018-09-05T13:01:38.026Z,9.77
2018-09-05T13:04:05.814Z,10.53
2018-09-05T13:06:34.606Z,10.10
2018-09-05T13:09:03.082Z,10.17
2018-09-05T13:11:30.874Z,10.00
2018-09-05T13:13:58.680Z,9.83
2018-09-05T13:16:26.274Z,11.03
2018-09-05T13:18:54.007Z,10.70
2018-09-05T13:21:21.658Z,10.20
2018-09-05T13:23:49.335Z,9.43
2018-09-05T13:26:17.115Z,10.83
2018-09-05T13:28:45.088Z,10.20
2018-09-05T13:31:12.846Z,10.07
2018-09-05T13:33:40.495Z,9.60
2018-09-05T13:36:08.379Z,9.93
2018-09-05T13:38:36.091Z,10.63
2018-09-05T13:41:03.905Z,10.20
2018-09-05T13:43:32.696Z,9.63
2018-09-05T13:46:00.589Z,10.10
2018-09-05T13:48:28.549Z,9.50
2018-09-05T13:50:56.215Z,9.23
2018-09-05T13:53:23.943Z,10.10
2018-09-05T13:55:51.614Z,10.20
2018-09-05T13:58:19.350Z,10.30
2018-09-05T14:00:47.314Z,10.57
2018-09-05T14:03:15.164Z,10.30
2018-09-05T14:05:42.923Z,12.60
2018-09-05T14:08:10.665Z,10.50
2018-09-05T14:10:39.827Z,10.27
2018-09-05T14:13:07.512Z,9.87
2018-09-05T14:15:35.231Z,9.80
2018-09-05T14:18:02.917Z,10.00
2018-09-05T14:20:34.026Z,9.93
2018-09-05T14:23:02.174Z,9.93
2018-09-05T14:25:30.231Z,9.47
2018-09-05T14:27:57.994Z,9.77
2018-09-05T14:30:25.657Z,9.00
2018-09-05T14:32:53.330Z,9.00
2018-09-05T14:35:21.043Z,8.90
2018-09-05T14:37:50.915Z,8.90
2018-09-05T14:40:19.432Z,10.03
2018-09-05T14:42:47.035Z,10.10
2018-09-05T14:45:14.897Z,9.77
2018-09-05T14:47:42.734Z,9.60
2018-09-05T14:50:10.570Z,9.77
2018-09-05T14:52:38.896Z,10.40
2018-09-05T14:55:06.663Z,10.13
2018-09-05T14:57:34.340Z,10.43
2018-09-05T15:00:02.040Z,11.27
2018-09-05T15:02:31.673Z,10.43
2018-09-05T15:04:59.460Z,10.23
2018-09-05T15:07:27.466Z,10.10
2018-09-05T15:09:55.192Z,9.83
2018-09-05T15:12:22.869Z,12.63
2018-09-05T15:14:50.579Z,10.57
2018-09-05T15:17:18.207Z,10.00
2018-09-05T15:19:46.481Z,9.87
2018-09-05T15:22:14.214Z,11.17
2018-09-05T15:24:41.795Z,9.53
2018-09-05T15:27:09.472Z,11.93
2018-09-05T15:29:38.714Z,9.43
2018-09-05T15:32:06.618Z,11.47
2018-09-05T15:34:35.194Z,15.53
2018-09-05T15:37:04.207Z,17.80
2018-09-05T15:39:32.197Z,13.30
2018-09-05T15:41:59.922Z,9.87
2018-09-05T15:44:28.174Z,11.80
2018-09-05T15:46:56.929Z,8.87
2018-09-05T15:49:33.202Z,10.90
2018-09-05T15:52:25.504Z,9.50
2018-09-05T15:55:05.040Z,11.63
2018-09-05T15:58:07.244Z,10.40
2018-09-05T16:00:39.634Z,10.70
2018-09-05T16:03:07.523Z,15.30
2018-09-05T16:05:35.759Z,12.40
2018-09-05T16:08:03.631Z,11.07
2018-09-05T16:10:32.019Z,14.50
2018-09-05T16:12:59.914Z,12.87
2018-09-05T16:15:28.010Z,9.77
2018-09-05T16:17:57.634Z,12.57
2018-09-05T16:20:26.358Z,10.30
2018-09-05T16:22:54.002Z,10.70
2018-09-05T16:25:22.023Z,10.13
2018-09-05T16:27:49.780Z,9.07
2018-09-05T16:30:17.490Z,10.53
2018-09-05T16:32:46.617Z,13.80
2018-09-05T16:35:14.355Z,15.93
2018-09-05T16:37:42.131Z,10.23
2018-09-05T16:40:10.238Z,11.10
2018-09-05T16:42:37.870Z,10.77
2018-09-05T16:45:05.613Z,9.83
2018-09-05T16:47:33.287Z,9.97
2018-09-05T16:50:02.043Z,13.30
2018-09-05T16:52:30.304Z,9.87
2018-09-05T16:54:58.480Z,31.67
2018-09-05T16:57:26.455Z,14.07
2018-09-05T16:59:54.256Z,12.33
2018-09-05T17:02:22.234Z,10.43
2018-09-05T17:04:50.092Z,12.57
2018-09-05T17:07:17.851Z,9.90
2018-09-05T17:09:46.015Z,10.70
2018-09-05T17:12:13.740Z,11.67
2018-09-05T17:14:41.557Z,11.20
2018-09-05T17:17:09.237Z,11.60
2018-09-05T17:19:41.796Z,13.73
2018-09-05T17:22:09.541Z,10.17
2018-09-05T17:24:37.961Z,10.00
2018-09-05T17:27:05.696Z,9.53
2018-09-05T17:29:33.393Z,10.70
2018-09-05T17:32:01.584Z,10.80
2018-09-05T17:34:31.849Z,9.20
2018-09-05T17:36:59.765Z,9.70
2018-09-05T17:39:27.482Z,11.87
2018-09-05T17:41:55.705Z,10.47
2018-09-05T17:44:23.507Z,14.07
2018-09-05T17:46:51.215Z,9.93
2018-09-05T17:49:21.039Z,10.00
2018-09-05T17:51:48.838Z,9.70
2018-09-05T17:54:16.556Z,11.00
2018-09-05T17:56:44.342Z,10.23
2018-09-05T17:59:15.827Z,11.20
2018-09-05T18:01:45.681Z,10.20
2018-09-05T18:04:13.459Z,10.60
2018-09-05T18:06:41.242Z,10.87
2018-09-05T18:09:09.844Z,10.93
2018-09-05T18:11:37.517Z,10.37
2018-09-05T18:14:05.199Z,10.57
2018-09-05T18:16:34.996Z,9.70
2018-09-05T18:19:04.363Z,10.90
2018-09-05T18:21:32.219Z,9.90
2018-09-05T18:24:00.051Z,9.63
2018-09-05T18:26:27.864Z,10.97
2018-09-05T18:28:55.503Z,10.33
2018-09-05T18:31:24.195Z,9.90
2018-09-05T18:33:51.901Z,11.00
2018-09-05T18:36:19.719Z,10.97
2018-09-05T18:38:47.740Z,11.40
2018-09-05T18:41:16.000Z,10.90
2018-09-05T18:43:44.502Z,11.23
2018-09-05T18:46:27.744Z,11.43
2018-09-05T18:48:55.611Z,10.80
2018-09-05T18:51:29.564Z,11.70
2018-09-05T18:53:59.699Z,13.83
2018-09-05T18:56:27.809Z,13.27
2018-09-05T18:58:57.880Z,24.83
2018-09-05T19:01:26.233Z,42.37
2018-09-05T19:03:54.465Z,51.50
2018-09-05T19:06:38.334Z,15.37
2018-09-05T19:09:13.912Z,11.40
2018-09-05T19:11:42.568Z,11.07
2018-09-05T19:14:11.581Z,10.20
2018-09-05T19:16:41.166Z,10.50
2018-09-05T19:19:09.073Z,9.53
2018-09-05T19:21:39.389Z,11.60
2018-09-05T19:24:07.057Z,11.37
2018-09-05T19:26:36.078Z,11.87
2018-09-05T19:29:09.343Z,11.13
2018-09-05T19:31:37.397Z,12.87
2018-09-05T19:34:05.259Z,11.80
2018-09-05T19:36:33.410Z,10.97
2018-09-05T19:39:02.023Z,10.60
2018-09-05T19:41:30.436Z,11.20
2018-09-05T19:43:58.223Z,10.53
2018-09-05T19:46:28.721Z,15.10
2018-09-05T19:48:56.464Z,10.90
2018-09-05T19:51:24.155Z,11.43
2018-09-05T19:53:52.286Z,11.77
2018-09-05T19:56:20.358Z,10.30
2018-09-05T19:58:48.019Z,10.23
2018-09-05T20:01:16.271Z,11.73
2018-09-05T20:03:45.744Z,11.70
2018-09-05T20:06:13.687Z,11.00
2018-09-05T20:08:42.002Z,11.70
2018-09-05T20:11:10.037Z,10.80
2018-09-05T20:13:37.670Z,11.57
2018-09-05T20:16:05.530Z,15.33
2018-09-05T20:18:33.345Z,10.77
2018-09-05T20:21:01.274Z,11.60
2018-09-05T20:23:29.775Z,10.43
2018-09-05T20:25:58.510Z,12.17
2018-09-05T20:28:26.235Z,10.53
2018-09-05T20:30:54.100Z,11.60
2018-09-05T20:33:31.347Z,11.70
2018-09-05T20:35:59.052Z,11.40
2018-09-05T20:38:27.269Z,11.40
2018-09-05T20:40:55.339Z,12.80
2018-09-05T20:43:29.501Z,11.50
2018-09-05T20:48:29.936Z,10.70
2018-09-05T20:50:58.816Z,10.97
2018-09-05T20:53:26.495Z,11.60
2018-09-05T20:55:54.963Z,10.90
2018-09-05T20:58:23.548Z,11.40
2018-09-05T21:00:51.284Z,12.00
2018-09-05T21:03:19.207Z,11.90
2018-09-05T21:05:46.871Z,12.23
2018-09-05T21:08:14.605Z,11.50
2018-09-05T21:10:43.370Z,11.70
2018-09-05T21:13:11.572Z,11.70
2018-09-05T21:15:39.588Z,11.40
2018-09-05T21:18:07.252Z,11.10
2018-09-05T21:20:35.705Z,11.63
2018-09-05T21:23:03.483Z,11.03
2018-09-05T21:25:31.249Z,11.83
2018-09-05T21:27:59.498Z,11.77
2018-09-05T21:30:27.156Z,11.40
2018-09-05T21:32:55.125Z,11.53
2018-09-05T21:35:22.944Z,10.40
2018-09-05T21:37:52.743Z,10.27
2018-09-05T21:40:21.466Z,11.37
2018-09-05T21:42:49.151Z,12.73
2018-09-05T21:45:17.862Z,14.10
2018-09-05T21:47:45.611Z,10.07
2018-09-05T21:50:13.491Z,11.20
2018-09-05T21:52:41.398Z,12.93
2018-09-05T21:55:09.043Z,10.90
2018-09-05T21:57:36.848Z,12.07
2018-09-05T22:00:10.870Z,11.47
2018-09-05T22:02:39.110Z,11.87
2018-09-05T22:05:12.107Z,11.13
2018-09-05T22:07:40.780Z,11.03
2018-09-05T22:10:08.485Z,11.77
2018-09-05T22:12:36.234Z,11.10
2018-09-05T22:15:05.064Z,10.60
2018-09-05T22:17:32.703Z,11.50
2018-09-05T22:20:00.378Z,12.03
2018-09-05T22:22:28.693Z,10.83
2018-09-05T22:24:56.459Z,11.60
2018-09-05T22:27:24.875Z,10.87
2018-09-05T22:30:00.403Z,13.00
2018-09-05T22:32:28.193Z,11.73
2018-09-05T22:34:56.007Z,12.27
2018-09-05T22:37:24.085Z,12.20
2018-09-05T22:39:52.907Z,12.50
2018-09-05T22:42:20.645Z,11.90
2018-09-05T22:44:59.674Z,13.33
2018-09-05T22:47:38.554Z,12.73
2018-09-05T22:52:27.018Z,12.77
2018-09-05T22:55:14.690Z,12.73
2018-09-05T22:58:07.986Z,11.63
2018-09-05T23:01:51.718Z,12.20
2018-09-05T23:05:03.306Z,12.57
2018-09-05T23:08:44.933Z,13.00
2018-09-05T23:11:27.260Z,13.13
2018-09-05T23:15:05.201Z,12.07
2018-09-05T23:19:52.379Z,13.00
2018-09-05T23:22:20.224Z,11.60
2018-09-05T23:24:48.099Z,12.80
2018-09-05T23:27:15.840Z,14.37
2018-09-05T23:29:45.252Z,13.67
2018-09-05T23:32:13.064Z,14.87
2018-09-05T23:34:40.840Z,15.20
2018-09-05T23:37:08.513Z,15.57
2018-09-05T23:39:36.241Z,14.83
2018-09-05T23:42:03.995Z,16.43
2018-09-05T23:44:31.650Z,14.70
2018-09-05T23:47:03.868Z,14.30
2018-09-05T23:49:31.693Z,14.63
2018-09-05T23:51:59.454Z,14.93
2018-09-05T23:54:27.083Z,14.57
2018-09-05T23:56:55.400Z,14.73
2018-09-05T23:59:23.057Z,13.67
